createdAt,value
2023-05-09T00:00:23.973Z,89.66
2023-05-09T00:02:51.489Z,89.75
2023-05-09T00:05:17.901Z,89.82
2023-05-09T00:07:44.241Z,89.53
2023-05-09T00:10:10.757Z,89.34
2023-05-09T00:12:37.238Z,89.63
2023-05-09T00:15:04.062Z,89.63
2023-05-09T00:17:31.181Z,89.48
2023-05-09T00:19:57.566Z,89.58
2023-05-09T00:22:23.886Z,89.50
2023-05-09T00:24:50.739Z,89.32
2023-05-09T00:27:17.488Z,89.73
2023-05-09T00:29:45.181Z,89.43
2023-05-09T00:32:11.680Z,89.41
2023-05-09T00:34:38.258Z,89.21
2023-05-09T00:37:04.579Z,89.56
2023-05-09T00:39:30.929Z,89.30
2023-05-09T00:41:57.334Z,89.32
2023-05-09T00:44:23.920Z,89.48
2023-05-09T00:46:50.457Z,89.33
2023-05-09T00:49:16.873Z,89.67
2023-05-09T00:51:43.274Z,89.49
2023-05-09T00:54:10.543Z,89.51
2023-05-09T00:56:37.134Z,89.87
2023-05-09T00:59:03.836Z,89.97
2023-05-09T01:01:30.824Z,89.77
2023-05-09T01:03:57.730Z,89.78
2023-05-09T01:06:44.840Z,89.55
2023-05-09T01:09:48.628Z,90.07
2023-05-09T01:12:37.195Z,90.17
2023-05-09T01:15:18.435Z,90.54
2023-05-09T01:18:00.568Z,90.57
2023-05-09T01:20:45.528Z,90.59
2023-05-09T01:23:22.211Z,90.54
2023-05-09T01:26:04.403Z,90.55
2023-05-09T01:29:15.858Z,90.45
2023-05-09T01:31:45.464Z,90.78
2023-05-09T01:34:16.459Z,90.71
2023-05-09T01:36:44.036Z,90.62
2023-05-09T01:39:13.822Z,90.82
2023-05-09T01:41:40.291Z,90.78
2023-05-09T01:44:11.066Z,90.75
2023-05-09T01:46:38.122Z,90.94
2023-05-09T01:49:07.603Z,90.50
2023-05-09T01:51:36.280Z,90.58
2023-05-09T01:54:04.532Z,90.95
2023-05-09T01:56:31.711Z,90.61
2023-05-09T01:59:00.637Z,90.75
2023-05-09T02:01:28.360Z,90.20
2023-05-09T02:03:55.981Z,90.74
2023-05-09T02:06:24.250Z,90.67
2023-05-09T02:08:51.092Z,90.51
2023-05-09T02:11:18.165Z,90.76
2023-05-09T02:13:44.655Z,90.60
2023-05-09T02:16:12.253Z,90.82
2023-05-09T02:18:38.738Z,90.95
2023-05-09T02:21:06.173Z,90.79
2023-05-09T02:23:32.544Z,90.83
2023-05-09T02:26:00.180Z,90.88
2023-05-09T02:28:28.282Z,90.75
2023-05-09T02:30:56.830Z,91.16
2023-05-09T02:33:24.174Z,91.20
2023-05-09T02:35:51.150Z,91.01
2023-05-09T02:38:18.194Z,91.10
2023-05-09T02:40:47.423Z,91.00
2023-05-09T02:43:15.029Z,91.02
2023-05-09T02:45:41.458Z,90.96
2023-05-09T02:48:08.952Z,90.34
2023-05-09T02:50:38.131Z,90.68
2023-05-09T02:53:04.481Z,90.60
2023-05-09T02:55:31.850Z,90.29
2023-05-09T02:58:12.089Z,90.41
2023-05-09T03:00:39.506Z,90.62
2023-05-09T03:03:05.955Z,90.64
2023-05-09T03:05:32.443Z,90.73
2023-05-09T03:07:58.803Z,90.74
2023-05-09T03:10:25.302Z,90.84
2023-05-09T03:12:51.653Z,91.05
2023-05-09T03:15:18.080Z,90.95
2023-05-09T03:17:44.411Z,91.10
2023-05-09T03:20:11.323Z,91.02
2023-05-09T03:22:37.748Z,91.30
2023-05-09T03:25:04.516Z,91.50
2023-05-09T03:27:30.876Z,91.65
2023-05-09T03:29:57.433Z,91.76
2023-05-09T03:32:23.840Z,91.59
2023-05-09T03:34:50.202Z,91.87
2023-05-09T03:37:16.554Z,91.63
2023-05-09T03:39:42.896Z,92.11
2023-05-09T03:42:09.205Z,91.85
2023-05-09T03:44:35.558Z,92.22
2023-05-09T03:47:01.983Z,92.31
2023-05-09T03:49:28.411Z,92.46
2023-05-09T03:51:54.853Z,92.45
2023-05-09T03:54:21.174Z,92.59
2023-05-09T03:56:47.511Z,92.31
2023-05-09T03:59:13.910Z,92.29
2023-05-09T04:01:40.791Z,92.10
2023-05-09T04:04:07.193Z,92.27
2023-05-09T04:06:34.082Z,92.10
2023-05-09T04:09:00.614Z,92.19
2023-05-09T04:11:26.933Z,92.37
2023-05-09T04:13:54.425Z,92.19
2023-05-09T04:16:21.059Z,92.35
2023-05-09T04:18:47.444Z,92.26
2023-05-09T04:21:13.780Z,92.05
2023-05-09T04:23:40.145Z,92.06
2023-05-09T04:26:07.280Z,92.05
2023-05-09T04:28:33.632Z,92.06
2023-05-09T04:31:00.045Z,91.70
2023-05-09T04:33:26.645Z,92.05
2023-05-09T04:35:54.131Z,91.96
2023-05-09T04:38:21.234Z,91.88
2023-05-09T04:40:47.775Z,91.73
2023-05-09T04:43:14.150Z,92.00
2023-05-09T04:45:40.569Z,91.87
2023-05-09T04:48:06.925Z,91.65
2023-05-09T04:50:33.402Z,91.56
2023-05-09T04:52:59.737Z,91.84
2023-05-09T04:55:26.247Z,91.86
2023-05-09T04:57:52.638Z,91.94
2023-05-09T05:00:19.355Z,91.71
2023-05-09T05:02:46.660Z,91.90
2023-05-09T05:05:13.097Z,91.50
2023-05-09T05:07:39.460Z,91.57
2023-05-09T05:10:06.397Z,91.73
2023-05-09T05:12:32.743Z,91.98
2023-05-09T05:14:59.060Z,91.84
2023-05-09T05:17:25.644Z,91.75
2023-05-09T05:19:52.023Z,91.78
2023-05-09T05:22:18.371Z,91.48
2023-05-09T05:24:44.711Z,91.46
2023-05-09T05:27:11.081Z,91.38
2023-05-09T05:29:37.430Z,91.39
2023-05-09T05:32:03.813Z,91.27
2023-05-09T05:34:30.339Z,91.11
2023-05-09T05:36:56.755Z,90.84
2023-05-09T05:39:23.082Z,91.10
2023-05-09T05:41:49.435Z,90.70
2023-05-09T05:44:15.768Z,90.90
2023-05-09T05:46:42.089Z,90.89
2023-05-09T05:49:08.508Z,90.65
2023-05-09T05:51:35.251Z,90.40
2023-05-09T05:54:04.041Z,90.26
2023-05-09T05:56:30.701Z,89.97
2023-05-09T05:58:57.070Z,89.91
2023-05-09T06:01:23.388Z,89.88
2023-05-09T06:03:54.591Z,89.30
2023-05-09T06:06:22.347Z,89.18
2023-05-09T06:08:51.834Z,89.22
2023-05-09T06:11:19.004Z,88.89
2023-05-09T06:13:45.558Z,89.03
2023-05-09T06:16:19.342Z,88.28
2023-05-09T06:18:47.252Z,88.39
2023-05-09T06:21:13.563Z,88.43
2023-05-09T06:23:44.763Z,88.48
2023-05-09T06:26:14.819Z,88.13
2023-05-09T06:28:42.593Z,87.98
2023-05-09T06:31:09.004Z,87.47
2023-05-09T06:33:35.414Z,87.87
2023-05-09T06:36:02.018Z,87.94
2023-05-09T06:38:28.442Z,88.02
2023-05-09T06:40:54.986Z,88.00
2023-05-09T06:43:21.373Z,87.95
2023-05-09T06:45:47.689Z,87.76
2023-05-09T06:48:14.203Z,87.61
2023-05-09T06:50:40.549Z,87.53
2023-05-09T06:53:06.933Z,87.68
2023-05-09T06:55:33.441Z,87.62
2023-05-09T06:57:59.866Z,87.87
2023-05-09T07:00:27.133Z,87.60
2023-05-09T07:02:53.550Z,87.74
2023-05-09T07:05:20.512Z,87.59
2023-05-09T07:07:46.870Z,87.57
2023-05-09T07:10:13.385Z,87.81
2023-05-09T07:12:40.388Z,87.70
2023-05-09T07:15:07.735Z,87.93
2023-05-09T07:17:34.185Z,87.96
2023-05-09T07:20:00.658Z,87.80
2023-05-09T07:22:28.759Z,87.74
2023-05-09T07:24:57.135Z,87.91
2023-05-09T07:27:23.569Z,87.52
2023-05-09T07:29:52.274Z,87.04
2023-05-09T07:32:19.623Z,87.31
2023-05-09T07:34:45.947Z,88.11
2023-05-09T07:37:13.721Z,87.72
2023-05-09T07:39:41.816Z,88.07
2023-05-09T07:42:08.370Z,87.81
2023-05-09T07:44:34.796Z,88.28
2023-05-09T07:47:02.799Z,88.42
2023-05-09T07:49:29.218Z,87.88
2023-05-09T07:51:55.560Z,87.97
2023-05-09T07:54:21.993Z,87.61
2023-05-09T07:56:48.520Z,88.09
2023-05-09T07:59:14.977Z,88.18
2023-05-09T08:01:41.358Z,87.70
2023-05-09T08:04:09.041Z,88.27
2023-05-09T08:06:35.942Z,88.52
2023-05-09T08:09:03.001Z,87.70
2023-05-09T08:11:29.353Z,88.07
2023-05-09T08:13:55.815Z,88.41
2023-05-09T08:16:22.183Z,88.37
2023-05-09T08:18:48.530Z,89.03
2023-05-09T08:21:14.854Z,88.61
2023-05-09T08:23:41.241Z,88.81
2023-05-09T08:26:07.667Z,88.81
2023-05-09T08:28:34.213Z,89.07
2023-05-09T08:31:00.664Z,88.68
2023-05-09T08:33:27.284Z,89.22
2023-05-09T08:35:54.262Z,89.38
2023-05-09T08:38:21.068Z,89.19
2023-05-09T08:40:47.826Z,89.33
2023-05-09T08:43:19.555Z,88.91
2023-05-09T08:45:50.810Z,88.92
2023-05-09T08:48:18.058Z,89.13
2023-05-09T08:50:44.832Z,88.75
2023-05-09T08:53:14.584Z,88.93
2023-05-09T08:55:41.960Z,88.84
2023-05-09T08:58:09.736Z,88.82
2023-05-09T09:00:38.257Z,89.00
2023-05-09T09:03:06.517Z,89.24
2023-05-09T09:05:41.889Z,89.32
2023-05-09T09:08:10.791Z,89.41
2023-05-09T09:10:41.213Z,88.57
2023-05-09T09:13:10.138Z,88.49
2023-05-09T09:15:38.569Z,88.81
2023-05-09T09:18:12.123Z,89.42
2023-05-09T09:20:47.827Z,89.24
2023-05-09T09:23:20.424Z,88.78
2023-05-09T09:25:47.630Z,89.67
2023-05-09T09:28:14.712Z,89.19
2023-05-09T09:30:58.949Z,89.36
2023-05-09T09:33:27.017Z,89.01
2023-05-09T09:35:56.274Z,89.43
2023-05-09T09:38:24.578Z,88.96
2023-05-09T09:40:57.898Z,89.50
2023-05-09T09:43:31.602Z,89.56
2023-05-09T09:46:02.287Z,89.22
2023-05-09T09:48:34.017Z,89.18
2023-05-09T09:51:18.734Z,88.74
2023-05-09T09:53:45.114Z,88.88
2023-05-09T09:56:11.672Z,89.25
2023-05-09T09:58:38.246Z,89.50
2023-05-09T10:01:09.459Z,89.12
2023-05-09T10:03:41.381Z,88.80
2023-05-09T10:06:15.964Z,89.01
2023-05-09T10:08:49.079Z,89.71
2023-05-09T10:11:16.458Z,89.75
2023-05-09T10:13:43.628Z,89.83
2023-05-09T10:16:11.247Z,90.17
2023-05-09T10:18:41.199Z,90.12
2023-05-09T10:21:11.482Z,89.87
2023-05-09T10:23:41.510Z,90.19
2023-05-09T10:26:27.532Z,90.37
2023-05-09T10:28:57.094Z,90.10
2023-05-09T10:31:29.470Z,89.77
2023-05-09T10:33:56.414Z,89.97
2023-05-09T10:36:24.014Z,89.59
2023-05-09T10:38:53.791Z,89.53
2023-05-09T10:41:21.952Z,89.40
2023-05-09T10:43:48.430Z,89.67
2023-05-09T10:46:15.851Z,89.85
2023-05-09T10:48:43.375Z,90.50
2023-05-09T10:51:10.402Z,90.04
2023-05-09T10:53:50.185Z,89.83
2023-05-09T10:56:23.929Z,90.10
2023-05-09T10:58:50.276Z,90.61
2023-05-09T11:01:29.344Z,90.83
2023-05-09T11:03:57.770Z,90.42
2023-05-09T11:06:41.979Z,90.35
2023-05-09T11:09:34.843Z,90.38
2023-05-09T11:12:09.879Z,90.68
2023-05-09T11:14:44.875Z,90.37
2023-05-09T11:17:15.520Z,89.50
2023-05-09T11:19:47.808Z,89.87
2023-05-09T11:22:21.453Z,89.86
2023-05-09T11:24:49.970Z,89.92
2023-05-09T11:27:24.220Z,89.65
2023-05-09T11:29:55.320Z,90.57
2023-05-09T11:32:27.188Z,90.59
2023-05-09T11:35:06.491Z,91.26
2023-05-09T11:37:33.347Z,91.21
2023-05-09T11:40:03.036Z,90.63
2023-05-09T11:42:29.871Z,90.72
2023-05-09T11:44:58.073Z,90.74
2023-05-09T11:47:25.367Z,91.48
2023-05-09T11:49:52.209Z,91.21
2023-05-09T11:52:19.628Z,91.21
2023-05-09T11:54:46.002Z,91.31
2023-05-09T11:57:17.195Z,91.32
2023-05-09T11:59:47.794Z,91.23
2023-05-09T12:02:14.383Z,91.29
2023-05-09T12:04:40.931Z,91.27
2023-05-09T12:07:07.515Z,91.40
2023-05-09T12:09:37.814Z,91.54
2023-05-09T12:12:14.377Z,91.89
2023-05-09T12:14:41.568Z,91.96
2023-05-09T12:17:08.346Z,91.89
2023-05-09T12:19:35.715Z,91.81
2023-05-09T12:22:05.288Z,91.79
2023-05-09T12:24:32.160Z,91.77
2023-05-09T12:26:59.865Z,92.09
2023-05-09T12:29:27.081Z,92.07
2023-05-09T12:31:54.267Z,92.27
2023-05-09T12:34:21.148Z,92.41
2023-05-09T12:36:50.889Z,92.47
2023-05-09T12:39:24.642Z,92.50
2023-05-09T12:42:00.998Z,92.72
2023-05-09T12:44:29.824Z,92.46
2023-05-09T12:47:01.786Z,92.63
2023-05-09T12:49:29.431Z,92.87
2023-05-09T12:51:57.958Z,92.44
2023-05-09T12:54:28.926Z,92.54
2023-05-09T12:56:57.253Z,92.39
2023-05-09T12:59:29.017Z,92.38
2023-05-09T13:01:59.956Z,91.65
2023-05-09T13:04:28.079Z,91.77
2023-05-09T13:06:57.410Z,92.14
2023-05-09T13:09:25.925Z,92.27
2023-05-09T13:11:53.013Z,91.88
2023-05-09T13:14:22.431Z,92.21
2023-05-09T13:16:48.994Z,91.89
2023-05-09T13:19:16.242Z,92.13
2023-05-09T13:21:42.613Z,92.34
2023-05-09T13:24:09.118Z,92.42
2023-05-09T13:26:35.646Z,92.36
2023-05-09T13:29:02.178Z,92.50
2023-05-09T13:31:28.719Z,92.65
2023-05-09T13:33:55.152Z,92.02
2023-05-09T13:36:21.500Z,91.60
2023-05-09T13:38:48.121Z,91.78
2023-05-09T13:41:19.926Z,91.89
2023-05-09T13:43:46.410Z,91.59
2023-05-09T13:46:12.890Z,91.79
2023-05-09T13:48:39.834Z,91.27
2023-05-09T13:51:07.686Z,91.19
2023-05-09T13:53:34.404Z,91.51
2023-05-09T13:56:01.389Z,91.73
2023-05-09T13:58:27.953Z,91.51
2023-05-09T14:00:54.324Z,91.34
2023-05-09T14:03:20.722Z,91.95
2023-05-09T14:05:48.044Z,91.91
2023-05-09T14:08:14.465Z,92.56
2023-05-09T14:10:40.832Z,92.18
2023-05-09T14:13:08.294Z,91.77
2023-05-09T14:15:35.106Z,91.64
2023-05-09T14:18:01.993Z,91.94
2023-05-09T14:20:28.365Z,91.78
2023-05-09T14:22:55.246Z,91.29
2023-05-09T14:25:22.555Z,91.42
2023-05-09T14:27:49.298Z,91.42
2023-05-09T14:30:16.006Z,91.72
2023-05-09T14:32:42.507Z,91.30
2023-05-09T14:35:09.436Z,91.63
2023-05-09T14:37:37.113Z,91.60
2023-05-09T14:40:05.472Z,91.83
2023-05-09T14:42:33.009Z,91.44
2023-05-09T14:44:59.851Z,91.83
2023-05-09T14:47:26.598Z,91.54
2023-05-09T14:49:53.144Z,91.14
2023-05-09T14:52:20.064Z,91.66
2023-05-09T14:54:46.434Z,91.30
2023-05-09T14:57:13.184Z,90.88
2023-05-09T14:59:39.618Z,91.08
2023-05-09T15:02:06.961Z,91.33
2023-05-09T15:04:33.373Z,91.80
2023-05-09T15:07:00.106Z,91.89
2023-05-09T15:09:27.004Z,92.17
2023-05-09T15:11:53.776Z,92.28
2023-05-09T15:14:20.125Z,92.20
2023-05-09T15:16:46.686Z,92.47
2023-05-09T15:19:14.488Z,92.03
2023-05-09T15:21:40.917Z,92.35
2023-05-09T15:24:07.535Z,92.21
2023-05-09T15:26:34.049Z,92.00
2023-05-09T15:29:00.407Z,92.02
2023-05-09T15:31:31.715Z,91.68
2023-05-09T15:33:58.375Z,91.82
2023-05-09T15:36:24.763Z,91.47
2023-05-09T15:38:51.093Z,91.25
2023-05-09T15:41:18.415Z,90.95
2023-05-09T15:43:44.765Z,91.18
2023-05-09T15:46:11.201Z,91.87
2023-05-09T15:48:37.678Z,91.83
2023-05-09T15:51:04.350Z,91.88
2023-05-09T15:53:31.052Z,91.72
2023-05-09T15:55:57.395Z,91.79
2023-05-09T15:58:23.868Z,91.52
2023-05-09T16:00:50.755Z,91.67
2023-05-09T16:03:18.034Z,91.50
2023-05-09T16:05:45.198Z,91.43
2023-05-09T16:08:12.005Z,91.39
2023-05-09T16:10:38.427Z,91.23
2023-05-09T16:13:04.840Z,91.19
2023-05-09T16:15:31.173Z,91.20
2023-05-09T16:17:57.566Z,91.59
2023-05-09T16:20:24.251Z,91.56
2023-05-09T16:22:50.590Z,91.75
2023-05-09T16:25:16.993Z,91.58
2023-05-09T16:27:43.368Z,91.73
2023-05-09T16:30:10.217Z,91.53
2023-05-09T16:32:36.965Z,91.70
2023-05-09T16:35:04.107Z,91.69
2023-05-09T16:37:35.413Z,92.04
2023-05-09T16:40:02.773Z,92.07
2023-05-09T16:42:29.203Z,92.17
2023-05-09T16:44:56.010Z,92.07
2023-05-09T16:47:22.506Z,91.97
2023-05-09T16:49:50.246Z,91.96
2023-05-09T16:52:16.748Z,91.99
2023-05-09T16:54:43.227Z,92.17
2023-05-09T16:57:09.737Z,92.04
2023-05-09T16:59:37.103Z,92.29
2023-05-09T17:02:04.336Z,92.16
2023-05-09T17:04:30.807Z,92.17
2023-05-09T17:06:57.204Z,92.08
2023-05-09T17:09:23.554Z,92.31
2023-05-09T17:11:49.944Z,92.17
2023-05-09T17:14:16.262Z,92.43
2023-05-09T17:16:42.880Z,92.50
2023-05-09T17:19:09.256Z,92.71
2023-05-09T17:21:35.621Z,92.70
2023-05-09T17:24:02.106Z,92.74
2023-05-09T17:26:29.542Z,92.61
2023-05-09T17:28:55.976Z,92.90
2023-05-09T17:31:22.588Z,92.86
2023-05-09T17:33:49.089Z,93.16
2023-05-09T17:36:15.511Z,92.89
2023-05-09T17:38:41.938Z,93.16
2023-05-09T17:41:08.322Z,93.20
2023-05-09T17:43:34.660Z,93.12
2023-05-09T17:46:01.014Z,93.28
2023-05-09T17:48:27.761Z,93.14
2023-05-09T17:50:54.381Z,93.24
2023-05-09T17:53:20.768Z,93.01
2023-05-09T17:55:47.157Z,92.85
2023-05-09T17:58:14.831Z,93.25
2023-05-09T18:00:41.375Z,92.97
2023-05-09T18:03:07.930Z,93.25
2023-05-09T18:05:34.642Z,93.27
2023-05-09T18:08:01.449Z,92.96
2023-05-09T18:10:28.620Z,93.37
2023-05-09T18:12:56.472Z,93.28
2023-05-09T18:15:22.956Z,93.34
2023-05-09T18:17:49.675Z,93.17
2023-05-09T18:20:16.223Z,93.01
2023-05-09T18:22:42.764Z,92.96
2023-05-09T18:25:09.536Z,92.91
2023-05-09T18:27:35.948Z,93.10
2023-05-09T18:30:02.622Z,93.07
2023-05-09T18:32:30.073Z,93.35
2023-05-09T18:34:56.693Z,93.26
2023-05-09T18:37:25.302Z,93.07
2023-05-09T18:39:52.842Z,93.34
2023-05-09T18:42:19.280Z,93.33
2023-05-09T18:44:45.884Z,93.21
2023-05-09T18:47:12.328Z,93.30
2023-05-09T18:49:39.147Z,93.18
2023-05-09T18:52:05.554Z,93.53
2023-05-09T18:54:31.974Z,93.57
2023-05-09T18:56:58.401Z,93.63
2023-05-09T18:59:24.729Z,93.66
2023-05-09T19:01:51.119Z,93.62
2023-05-09T19:04:19.292Z,93.61
2023-05-09T19:06:46.400Z,93.63
2023-05-09T19:09:12.877Z,93.60
2023-05-09T19:11:39.558Z,93.52
2023-05-09T19:14:06.058Z,93.52
2023-05-09T19:16:32.562Z,93.49
2023-05-09T19:18:58.949Z,93.84
2023-05-09T19:21:25.496Z,93.68
2023-05-09T19:23:51.904Z,93.89
2023-05-09T19:26:19.311Z,93.73
2023-05-09T19:28:46.579Z,93.98
2023-05-09T19:31:15.057Z,94.03
2023-05-09T19:33:45.210Z,94.08
2023-05-09T19:36:11.770Z,94.15
2023-05-09T19:38:38.122Z,94.14
2023-05-09T19:41:05.184Z,94.10
2023-05-09T19:43:32.838Z,94.16
2023-05-09T19:46:00.038Z,94.02
2023-05-09T19:48:26.753Z,94.13
2023-05-09T19:50:57.857Z,94.03
2023-05-09T19:53:24.691Z,93.79
2023-05-09T19:55:51.695Z,93.78
2023-05-09T19:58:18.120Z,93.68
2023-05-09T20:00:44.745Z,93.61
2023-05-09T20:03:11.135Z,93.34
2023-05-09T20:05:37.824Z,93.43
2023-05-09T20:08:04.583Z,93.81
2023-05-09T20:10:32.827Z,93.60
2023-05-09T20:13:00.772Z,93.61
2023-05-09T20:15:27.806Z,93.48
2023-05-09T20:17:54.424Z,93.18
2023-05-09T20:20:21.026Z,93.51
2023-05-09T20:22:47.539Z,93.27
2023-05-09T20:25:14.713Z,93.24
2023-05-09T20:27:41.234Z,93.00
2023-05-09T20:30:08.162Z,93.10
2023-05-09T20:32:34.950Z,93.21
2023-05-09T20:35:01.354Z,93.11
2023-05-09T20:37:27.814Z,93.10
2023-05-09T20:39:54.198Z,92.75
2023-05-09T20:42:20.561Z,93.00
2023-05-09T20:44:47.706Z,92.81
2023-05-09T20:47:14.211Z,92.87
2023-05-09T20:49:40.605Z,92.77
2023-05-09T20:52:07.001Z,92.66
2023-05-09T20:54:33.465Z,92.67
2023-05-09T20:56:59.893Z,92.56
2023-05-09T20:59:26.372Z,92.79
2023-05-09T21:01:55.392Z,92.97
2023-05-09T21:04:23.030Z,93.26
2023-05-09T21:06:49.534Z,93.01
2023-05-09T21:09:15.937Z,92.88
2023-05-09T21:11:42.414Z,93.02
2023-05-09T21:14:09.664Z,93.16
2023-05-09T21:16:36.264Z,93.10
2023-05-09T21:19:04.816Z,92.87
2023-05-09T21:21:33.109Z,92.92
2023-05-09T21:24:03.054Z,93.37
2023-05-09T21:26:29.969Z,92.90
2023-05-09T21:28:56.561Z,93.14
2023-05-09T21:31:23.046Z,93.07
2023-05-09T21:33:49.577Z,93.06
2023-05-09T21:36:16.266Z,93.24
2023-05-09T21:38:42.692Z,93.13
2023-05-09T21:41:10.017Z,93.25
2023-05-09T21:43:37.449Z,93.05
2023-05-09T21:46:05.461Z,93.22
2023-05-09T21:48:31.975Z,93.04
2023-05-09T21:51:03.861Z,93.19
2023-05-09T21:53:30.717Z,93.30
2023-05-09T21:55:57.167Z,93.02
2023-05-09T21:58:23.614Z,93.36
2023-05-09T22:00:49.994Z,92.92
2023-05-09T22:03:16.474Z,93.00
2023-05-09T22:05:42.865Z,93.26
2023-05-09T22:08:09.252Z,93.49
2023-05-09T22:10:37.628Z,93.30
2023-05-09T22:13:04.159Z,93.25
2023-05-09T22:15:30.614Z,93.67
2023-05-09T22:17:57.159Z,93.44
2023-05-09T22:20:23.688Z,93.63
2023-05-09T22:22:50.150Z,93.61
2023-05-09T22:25:16.509Z,93.31
2023-05-09T22:27:42.935Z,93.75
2023-05-09T22:30:12.068Z,93.75
2023-05-09T22:32:39.103Z,93.27
2023-05-09T22:35:06.035Z,93.64
2023-05-09T22:37:32.448Z,93.65
2023-05-09T22:40:01.237Z,93.34
2023-05-09T22:42:29.279Z,93.31
2023-05-09T22:44:55.771Z,93.79
2023-05-09T22:47:22.210Z,93.33
2023-05-09T22:49:49.553Z,93.64
2023-05-09T22:52:16.229Z,93.40
2023-05-09T22:54:42.663Z,93.40
2023-05-09T22:57:09.626Z,93.33
2023-05-09T22:59:36.883Z,93.53
2023-05-09T23:02:03.696Z,93.59
2023-05-09T23:04:30.324Z,93.50
2023-05-09T23:06:56.705Z,93.11
2023-05-09T23:09:23.370Z,93.41
2023-05-09T23:11:49.767Z,93.28
2023-05-09T23:14:16.128Z,93.61
2023-05-09T23:16:42.623Z,93.65
2023-05-09T23:19:10.339Z,93.45
2023-05-09T23:21:36.666Z,93.75
2023-05-09T23:24:03.058Z,93.15
2023-05-09T23:26:30.318Z,93.26
2023-05-09T23:28:56.709Z,93.34
2023-05-09T23:31:23.091Z,93.26
2023-05-09T23:33:49.709Z,93.58
2023-05-09T23:36:16.063Z,93.53
2023-05-09T23:38:42.580Z,93.38
2023-05-09T23:41:08.951Z,93.36
2023-05-09T23:43:35.265Z,93.93
2023-05-09T23:46:01.805Z,93.37
2023-05-09T23:48:28.192Z,93.73
2023-05-09T23:50:54.549Z,93.83
2023-05-09T23:53:20.994Z,93.78
2023-05-09T23:55:47.391Z,93.83
2023-05-09T23:58:14.021Z,93.81
